sensor_id;sensor_type;location;lat;lon;timestamp;pressure;altitude;pressure_sealevel;temperature;humidity
49915;BME280;35806;47.958;13.158;2022-09-29T00:00:24;93359.86;;;8.74;61.77
49915;BME280;35806;47.958;13.158;2022-09-29T00:02:52;93358.82;;;8.58;62.16
49915;BME280;35806;47.958;13.158;2022-09-29T00:05:19;93348.74;;;9.13;60.98
49915;BME280;35806;47.958;13.158;2022-09-29T00:07:47;93350.06;;;8.92;61.56
49915;BME280;35806;47.958;13.158;2022-09-29T00:10:14;93358.01;;;8.80;61.69
49915;BME280;35806;47.958;13.158;2022-09-29T00:12:42;93357.56;;;8.93;60.95
49915;BME280;35806;47.958;13.158;2022-09-29T00:15:09;93359.74;;;8.83;61.29
49915;BME280;35806;47.958;13.158;2022-09-29T00:17:37;93358.76;;;9.09;60.76
49915;BME280;35806;47.958;13.158;2022-09-29T00:20:05;93360.96;;;8.78;61.10
49915;BME280;35806;47.958;13.158;2022-09-29T00:22:33;93362.82;;;8.88;61.16
49915;BME280;35806;47.958;13.158;2022-09-29T00:25:05;93365.31;;;9.10;60.60
49915;BME280;35806;47.958;13.158;2022-09-29T00:27:33;93359.76;;;8.65;61.15
49915;BME280;35806;47.958;13.158;2022-09-29T00:30:00;93353.71;;;8.55;60.70
49915;BME280;35806;47.958;13.158;2022-09-29T00:32:28;93350.72;;;8.27;60.65
49915;BME280;35806;47.958;13.158;2022-09-29T00:34:54;93350.95;;;8.76;60.43
49915;BME280;35806;47.958;13.158;2022-09-29T00:37:21;93341.21;;;8.70;60.51
49915;BME280;35806;47.958;13.158;2022-09-29T00:39:48;93334.74;;;8.84;60.38
49915;BME280;35806;47.958;13.158;2022-09-29T00:42:18;93333.13;;;8.52;60.72
49915;BME280;35806;47.958;13.158;2022-09-29T00:45:01;93333.01;;;8.74;61.11
49915;BME280;35806;47.958;13.158;2022-09-29T00:47:31;93327.48;;;8.97;61.04
49915;BME280;35806;47.958;13.158;2022-09-29T00:50:05;93326.81;;;9.13;60.86
49915;BME280;35806;47.958;13.158;2022-09-29T00:52:41;93322.11;;;9.11;60.85
49915;BME280;35806;47.958;13.158;2022-09-29T00:55:14;93322.25;;;9.27;60.21
49915;BME280;35806;47.958;13.158;2022-09-29T00:57:46;93315.48;;;8.62;60.61
49915;BME280;35806;47.958;13.158;2022-09-29T01:16:00;93317.39;;;8.49;61.55
49915;BME280;35806;47.958;13.158;2022-09-29T01:18:28;93315.14;;;8.78;61.19
49915;BME280;35806;47.958;13.158;2022-09-29T01:21:09;93312.35;;;8.74;60.55
49915;BME280;35806;47.958;13.158;2022-09-29T01:24:08;93310.58;;;8.87;60.35
49915;BME280;35806;47.958;13.158;2022-09-29T01:27:24;93311.53;;;8.67;60.44
49915;BME280;35806;47.958;13.158;2022-09-29T01:30:05;93315.12;;;8.76;60.05
49915;BME280;35806;47.958;13.158;2022-09-29T01:32:57;93313.15;;;8.77;60.15
49915;BME280;35806;47.958;13.158;2022-09-29T01:35:35;93308.85;;;8.23;60.04
49915;BME280;35806;47.958;13.158;2022-09-29T01:38:16;93304.07;;;8.41;60.01
49915;BME280;35806;47.958;13.158;2022-09-29T01:40:52;93299.44;;;8.43;59.80
49915;BME280;35806;47.958;13.158;2022-09-29T01:43:26;93295.48;;;8.14;60.20
49915;BME280;35806;47.958;13.158;2022-09-29T01:46:00;93298.69;;;8.28;60.45
49915;BME280;35806;47.958;13.158;2022-09-29T01:48:31;93302.52;;;8.57;60.63
49915;BME280;35806;47.958;13.158;2022-09-29T01:51:03;93297.88;;;8.52;60.77
49915;BME280;35806;47.958;13.158;2022-09-29T01:53:36;93297.56;;;8.60;60.55
49915;BME280;35806;47.958;13.158;2022-09-29T01:56:08;93296.70;;;8.84;59.76
49915;BME280;35806;47.958;13.158;2022-09-29T01:58:43;93295.91;;;8.22;59.99
49915;BME280;35806;47.958;13.158;2022-09-29T02:01:14;93291.53;;;8.35;60.01
49915;BME280;35806;47.958;13.158;2022-09-29T02:03:46;93289.37;;;8.40;60.31
49915;BME280;35806;47.958;13.158;2022-09-29T02:06:20;93284.13;;;8.59;60.22
49915;BME280;35806;47.958;13.158;2022-09-29T02:08:53;93281.08;;;8.65;60.03
49915;BME280;35806;47.958;13.158;2022-09-29T02:11:20;93286.36;;;8.48;60.22
49915;BME280;35806;47.958;13.158;2022-09-29T02:13:50;93286.52;;;8.47;59.97
49915;BME280;35806;47.958;13.158;2022-09-29T02:16:22;93291.12;;;8.46;59.63
49915;BME280;35806;47.958;13.158;2022-09-29T02:18:53;93295.37;;;8.40;59.54
49915;BME280;35806;47.958;13.158;2022-09-29T02:21:21;93292.72;;;8.40;59.63
49915;BME280;35806;47.958;13.158;2022-09-29T02:23:48;93288.15;;;8.01;59.89
49915;BME280;35806;47.958;13.158;2022-09-29T02:26:17;93283.56;;;7.84;59.73
49915;BME280;35806;47.958;13.158;2022-09-29T02:28:46;93281.84;;;8.24;59.70
49915;BME280;35806;47.958;13.158;2022-09-29T02:31:13;93279.71;;;8.12;60.58
49915;BME280;35806;47.958;13.158;2022-09-29T02:33:40;93274.19;;;8.63;59.89
49915;BME280;35806;47.958;13.158;2022-09-29T02:36:17;93269.84;;;8.48;59.63
49915;BME280;35806;47.958;13.158;2022-09-29T02:38:53;93268.94;;;8.59;59.16
49915;BME280;35806;47.958;13.158;2022-09-29T02:41:33;93266.44;;;8.44;59.55
49915;BME280;35806;47.958;13.158;2022-09-29T02:44:45;93267.30;;;8.18;60.39
49915;BME280;35806;47.958;13.158;2022-09-29T02:47:35;93263.32;;;8.36;59.54
49915;BME280;35806;47.958;13.158;2022-09-29T02:50:18;93266.54;;;6.63;60.86
49915;BME280;35806;47.958;13.158;2022-09-29T02:52:55;93264.32;;;6.86;59.88
49915;BME280;35806;47.958;13.158;2022-09-29T02:55:33;93262.61;;;6.43;59.82
49915;BME280;35806;47.958;13.158;2022-09-29T02:58:08;93266.71;;;6.00;60.54
49915;BME280;35806;47.958;13.158;2022-09-29T03:00:39;93265.70;;;6.08;60.74
49915;BME280;35806;47.958;13.158;2022-09-29T03:03:07;93266.92;;;4.67;63.59
49915;BME280;35806;47.958;13.158;2022-09-29T03:05:34;93258.04;;;5.21;63.19
49915;BME280;35806;47.958;13.158;2022-09-29T03:08:01;93251.58;;;5.25;63.09
49915;BME280;35806;47.958;13.158;2022-09-29T03:10:28;93254.53;;;6.37;60.55
49915;BME280;35806;47.958;13.158;2022-09-29T03:12:55;93255.30;;;6.93;59.87
49915;BME280;35806;47.958;13.158;2022-09-29T03:15:22;93257.60;;;6.99;59.43
49915;BME280;35806;47.958;13.158;2022-09-29T03:17:48;93260.46;;;6.68;59.92
49915;BME280;35806;47.958;13.158;2022-09-29T03:20:15;93262.71;;;6.53;59.89
49915;BME280;35806;47.958;13.158;2022-09-29T03:22:43;93257.87;;;5.91;60.78
49915;BME280;35806;47.958;13.158;2022-09-29T03:25:11;93258.35;;;5.53;60.69
49915;BME280;35806;47.958;13.158;2022-09-29T03:27:38;93255.33;;;6.17;60.32
49915;BME280;35806;47.958;13.158;2022-09-29T03:30:06;93249.65;;;6.83;59.55
49915;BME280;35806;47.958;13.158;2022-09-29T03:32:33;93252.54;;;6.16;60.28
49915;BME280;35806;47.958;13.158;2022-09-29T03:35:00;93247.36;;;7.14;59.18
49915;BME280;35806;47.958;13.158;2022-09-29T03:37:27;93247.58;;;6.08;60.48
49915;BME280;35806;47.958;13.158;2022-09-29T03:39:53;93247.92;;;5.55;61.85
49915;BME280;35806;47.958;13.158;2022-09-29T03:42:20;93246.91;;;4.24;64.22
49915;BME280;35806;47.958;13.158;2022-09-29T03:44:48;93251.10;;;4.25;63.51
49915;BME280;35806;47.958;13.158;2022-09-29T03:47:14;93245.31;;;4.17;65.67
49915;BME280;35806;47.958;13.158;2022-09-29T03:49:41;93244.30;;;3.97;65.59
49915;BME280;35806;47.958;13.158;2022-09-29T03:52:08;93247.96;;;4.51;64.58
49915;BME280;35806;47.958;13.158;2022-09-29T03:54:35;93248.65;;;4.16;65.25
49915;BME280;35806;47.958;13.158;2022-09-29T03:57:02;93252.89;;;4.67;64.04
49915;BME280;35806;47.958;13.158;2022-09-29T03:59:30;93255.41;;;4.63;64.44
49915;BME280;35806;47.958;13.158;2022-09-29T04:01:58;93254.64;;;5.80;62.12
49915;BME280;35806;47.958;13.158;2022-09-29T04:04:24;93248.38;;;6.42;61.11
49915;BME280;35806;47.958;13.158;2022-09-29T04:06:51;93246.04;;;5.71;61.76
49915;BME280;35806;47.958;13.158;2022-09-29T04:09:18;93243.21;;;6.17;60.62
49915;BME280;35806;47.958;13.158;2022-09-29T04:11:45;93241.49;;;6.73;60.18
49915;BME280;35806;47.958;13.158;2022-09-29T04:14:11;93246.81;;;6.87;60.43
49915;BME280;35806;47.958;13.158;2022-09-29T04:16:38;93248.70;;;6.87;60.52
49915;BME280;35806;47.958;13.158;2022-09-29T04:19:05;93250.41;;;7.31;60.19
49915;BME280;35806;47.958;13.158;2022-09-29T04:21:32;93253.17;;;7.26;60.42
49915;BME280;35806;47.958;13.158;2022-09-29T04:23:58;93247.83;;;7.20;60.39
49915;BME280;35806;47.958;13.158;2022-09-29T04:26:25;93240.93;;;7.71;60.19
49915;BME280;35806;47.958;13.158;2022-09-29T04:28:54;93244.68;;;7.85;59.92
49915;BME280;35806;47.958;13.158;2022-09-29T04:31:21;93256.74;;;7.71;59.99
49915;BME280;35806;47.958;13.158;2022-09-29T04:33:48;93258.66;;;7.54;59.47
49915;BME280;35806;47.958;13.158;2022-09-29T04:36:15;93260.22;;;7.56;59.95
49915;BME280;35806;47.958;13.158;2022-09-29T04:38:47;93258.49;;;7.55;60.01
49915;BME280;35806;47.958;13.158;2022-09-29T04:41:13;93257.13;;;7.73;59.45
49915;BME280;35806;47.958;13.158;2022-09-29T04:43:41;93260.31;;;7.52;59.20
49915;BME280;35806;47.958;13.158;2022-09-29T04:46:09;93256.49;;;6.97;59.42
49915;BME280;35806;47.958;13.158;2022-09-29T04:48:37;93259.12;;;6.25;59.06
49915;BME280;35806;47.958;13.158;2022-09-29T04:51:05;93258.96;;;5.83;59.85
49915;BME280;35806;47.958;13.158;2022-09-29T04:53:32;93259.97;;;6.07;59.60
49915;BME280;35806;47.958;13.158;2022-09-29T04:56:04;93257.27;;;6.58;58.97
49915;BME280;35806;47.958;13.158;2022-09-29T04:58:32;93261.01;;;7.44;58.52
49915;BME280;35806;47.958;13.158;2022-09-29T05:01:05;93268.62;;;7.14;58.62
49915;BME280;35806;47.958;13.158;2022-09-29T05:03:32;93271.40;;;6.99;58.86
49915;BME280;35806;47.958;13.158;2022-09-29T05:06:00;93265.87;;;7.33;58.48
49915;BME280;35806;47.958;13.158;2022-09-29T05:08:28;93253.63;;;6.81;59.35
49915;BME280;35806;47.958;13.158;2022-09-29T05:10:55;93259.01;;;6.87;59.14
49915;BME280;35806;47.958;13.158;2022-09-29T05:13:24;93264.34;;;6.74;58.98
49915;BME280;35806;47.958;13.158;2022-09-29T05:15:55;93272.69;;;6.21;58.66
49915;BME280;35806;47.958;13.158;2022-09-29T05:18:23;93266.97;;;6.36;59.54
49915;BME280;35806;47.958;13.158;2022-09-29T05:20:50;93262.34;;;6.78;59.24
49915;BME280;35806;47.958;13.158;2022-09-29T05:23:18;93261.38;;;6.86;59.05
49915;BME280;35806;47.958;13.158;2022-09-29T05:25:45;93261.65;;;6.56;59.68
49915;BME280;35806;47.958;13.158;2022-09-29T05:28:13;93262.67;;;6.67;60.25
49915;BME280;35806;47.958;13.158;2022-09-29T05:30:41;93262.29;;;7.12;59.71
49915;BME280;35806;47.958;13.158;2022-09-29T05:33:09;93261.81;;;6.89;60.69
49915;BME280;35806;47.958;13.158;2022-09-29T05:35:37;93262.60;;;7.10;60.75
49915;BME280;35806;47.958;13.158;2022-09-29T05:38:04;93257.90;;;7.29;60.34
49915;BME280;35806;47.958;13.158;2022-09-29T05:40:31;93264.75;;;7.55;59.34
49915;BME280;35806;47.958;13.158;2022-09-29T05:42:58;93270.87;;;6.95;59.76
49915;BME280;35806;47.958;13.158;2022-09-29T05:45:25;93270.73;;;7.25;59.59
49915;BME280;35806;47.958;13.158;2022-09-29T05:47:53;93273.84;;;7.16;59.81
49915;BME280;35806;47.958;13.158;2022-09-29T05:50:20;93276.81;;;6.87;59.96
49915;BME280;35806;47.958;13.158;2022-09-29T05:52:48;93276.84;;;4.89;63.15
49915;BME280;35806;47.958;13.158;2022-09-29T05:55:16;93275.11;;;5.21;63.47
49915;BME280;35806;47.958;13.158;2022-09-29T05:57:47;93266.24;;;6.23;62.21
49915;BME280;35806;47.958;13.158;2022-09-29T06:00:15;93265.87;;;6.78;61.19
49915;BME280;35806;47.958;13.158;2022-09-29T06:02:42;93269.58;;;7.61;60.19
49915;BME280;35806;47.958;13.158;2022-09-29T06:05:10;93266.85;;;7.60;61.22
49915;BME280;35806;47.958;13.158;2022-09-29T06:07:42;93263.42;;;7.65;61.97
49915;BME280;35806;47.958;13.158;2022-09-29T06:10:09;93270.37;;;7.87;61.26
49915;BME280;35806;47.958;13.158;2022-09-29T06:12:37;93264.07;;;8.09;61.29
49915;BME280;35806;47.958;13.158;2022-09-29T06:15:05;93254.81;;;8.51;60.99
49915;BME280;35806;47.958;13.158;2022-09-29T06:17:33;93263.77;;;8.67;61.16
49915;BME280;35806;47.958;13.158;2022-09-29T06:20:01;93270.55;;;8.67;61.69
49915;BME280;35806;47.958;13.158;2022-09-29T06:22:28;93276.66;;;8.71;61.29
49915;BME280;35806;47.958;13.158;2022-09-29T06:24:56;93277.76;;;8.94;61.02
49915;BME280;35806;47.958;13.158;2022-09-29T06:27:23;93271.49;;;8.75;61.32
49915;BME280;35806;47.958;13.158;2022-09-29T06:29:50;93263.48;;;8.54;61.77
49915;BME280;35806;47.958;13.158;2022-09-29T06:32:18;93259.60;;;8.59;61.50
49915;BME280;35806;47.958;13.158;2022-09-29T06:34:45;93260.79;;;8.20;61.68
49915;BME280;35806;47.958;13.158;2022-09-29T06:37:12;93257.99;;;8.14;62.16
49915;BME280;35806;47.958;13.158;2022-09-29T06:39:39;93259.33;;;8.43;62.27
49915;BME280;35806;47.958;13.158;2022-09-29T06:42:06;93255.73;;;8.64;62.15
49915;BME280;35806;47.958;13.158;2022-09-29T06:44:33;93251.96;;;8.39;62.25
49915;BME280;35806;47.958;13.158;2022-09-29T06:47:00;93248.71;;;8.71;61.78
49915;BME280;35806;47.958;13.158;2022-09-29T06:49:27;93242.79;;;9.07;61.62
49915;BME280;35806;47.958;13.158;2022-09-29T06:51:53;93238.74;;;8.97;61.92
49915;BME280;35806;47.958;13.158;2022-09-29T06:54:22;93236.95;;;8.87;61.87
49915;BME280;35806;47.958;13.158;2022-09-29T06:56:50;93238.98;;;8.86;61.90
49915;BME280;35806;47.958;13.158;2022-09-29T06:59:18;93240.56;;;8.78;62.31
49915;BME280;35806;47.958;13.158;2022-09-29T07:01:46;93230.38;;;8.59;62.13
49915;BME280;35806;47.958;13.158;2022-09-29T07:04:13;93219.97;;;8.38;62.27
49915;BME280;35806;47.958;13.158;2022-09-29T07:06:40;93219.73;;;8.38;62.31
49915;BME280;35806;47.958;13.158;2022-09-29T07:09:07;93216.51;;;8.68;62.17
49915;BME280;35806;47.958;13.158;2022-09-29T07:11:34;93221.73;;;8.54;62.41
49915;BME280;35806;47.958;13.158;2022-09-29T07:14:02;93227.63;;;8.80;61.94
49915;BME280;35806;47.958;13.158;2022-09-29T07:16:29;93231.61;;;9.18;61.86
49915;BME280;35806;47.958;13.158;2022-09-29T07:18:56;93238.46;;;9.09;61.83
49915;BME280;35806;47.958;13.158;2022-09-29T07:21:23;93243.99;;;9.46;61.23
49915;BME280;35806;47.958;13.158;2022-09-29T07:23:51;93244.06;;;9.35;62.30
49915;BME280;35806;47.958;13.158;2022-09-29T07:26:18;93251.55;;;9.59;62.18
49915;BME280;35806;47.958;13.158;2022-09-29T07:28:46;93266.29;;;10.37;60.95
49915;BME280;35806;47.958;13.158;2022-09-29T07:31:15;93277.37;;;9.92;61.60
49915;BME280;35806;47.958;13.158;2022-09-29T07:33:43;93267.62;;;9.87;60.79
49915;BME280;35806;47.958;13.158;2022-09-29T07:36:12;93260.48;;;9.56;60.35
49915;BME280;35806;47.958;13.158;2022-09-29T07:38:40;93246.91;;;8.78;61.16
49915;BME280;35806;47.958;13.158;2022-09-29T07:41:09;93248.53;;;8.89;61.03
49915;BME280;35806;47.958;13.158;2022-09-29T07:43:37;93246.85;;;8.68;61.67
49915;BME280;35806;47.958;13.158;2022-09-29T07:46:05;93250.20;;;8.75;62.30
49915;BME280;35806;47.958;13.158;2022-09-29T07:48:34;93257.67;;;8.88;61.94
49915;BME280;35806;47.958;13.158;2022-09-29T07:51:04;93266.91;;;8.90;62.45
49915;BME280;35806;47.958;13.158;2022-09-29T07:53:37;93267.78;;;8.81;63.17
49915;BME280;35806;47.958;13.158;2022-09-29T07:56:07;93268.18;;;8.74;62.87
49915;BME280;35806;47.958;13.158;2022-09-29T07:58:36;93270.23;;;8.71;62.94
49915;BME280;35806;47.958;13.158;2022-09-29T08:01:04;93261.16;;;8.78;62.63
49915;BME280;35806;47.958;13.158;2022-09-29T08:03:32;93254.69;;;8.53;63.67
49915;BME280;35806;47.958;13.158;2022-09-29T08:05:59;93259.09;;;9.24;62.06
49915;BME280;35806;47.958;13.158;2022-09-29T08:08:26;93255.99;;;9.87;61.78
49915;BME280;35806;47.958;13.158;2022-09-29T08:11:00;93258.02;;;9.25;61.70
49915;BME280;35806;47.958;13.158;2022-09-29T08:13:28;93264.85;;;9.78;61.78
49915;BME280;35806;47.958;13.158;2022-09-29T08:15:57;93274.56;;;9.83;61.48
49915;BME280;35806;47.958;13.158;2022-09-29T08:18:24;93278.02;;;9.90;61.76
49915;BME280;35806;47.958;13.158;2022-09-29T08:20:51;93283.48;;;9.86;62.39
49915;BME280;35806;47.958;13.158;2022-09-29T08:23:19;93285.72;;;10.27;61.67
49915;BME280;35806;47.958;13.158;2022-09-29T08:25:47;93283.39;;;10.29;62.02
49915;BME280;35806;47.958;13.158;2022-09-29T08:28:14;93283.69;;;11.03;59.27
49915;BME280;35806;47.958;13.158;2022-09-29T08:30:42;93278.32;;;11.65;58.27
49915;BME280;35806;47.958;13.158;2022-09-29T08:33:09;93273.20;;;10.39;59.50
49915;BME280;35806;47.958;13.158;2022-09-29T08:35:37;93273.11;;;10.47;60.40
49915;BME280;35806;47.958;13.158;2022-09-29T08:38:04;93282.39;;;10.12;60.00
49915;BME280;35806;47.958;13.158;2022-09-29T08:40:32;93287.82;;;10.27;60.21
49915;BME280;35806;47.958;13.158;2022-09-29T08:43:07;93281.83;;;10.10;59.66
49915;BME280;35806;47.958;13.158;2022-09-29T08:45:41;93283.05;;;9.95;59.27
49915;BME280;35806;47.958;13.158;2022-09-29T08:48:14;93287.87;;;10.04;59.78
49915;BME280;35806;47.958;13.158;2022-09-29T08:51:06;93286.14;;;11.13;58.29
49915;BME280;35806;47.958;13.158;2022-09-29T08:53:43;93283.33;;;10.93;58.65
49915;BME280;35806;47.958;13.158;2022-09-29T08:56:15;93285.02;;;10.63;59.17
49915;BME280;35806;47.958;13.158;2022-09-29T08:58:44;93288.89;;;11.22;58.96
49915;BME280;35806;47.958;13.158;2022-09-29T09:01:20;93281.54;;;11.50;57.85
49915;BME280;35806;47.958;13.158;2022-09-29T09:04:06;93270.54;;;11.47;58.22
49915;BME280;35806;47.958;13.158;2022-09-29T09:06:48;93272.54;;;11.40;58.06
49915;BME280;35806;47.958;13.158;2022-09-29T09:09:38;93273.12;;;11.15;57.03
49915;BME280;35806;47.958;13.158;2022-09-29T09:12:19;93275.58;;;10.93;57.27
49915;BME280;35806;47.958;13.158;2022-09-29T09:15:00;93270.59;;;11.35;56.26
49915;BME280;35806;47.958;13.158;2022-09-29T09:17:44;93272.24;;;11.00;57.61
49915;BME280;35806;47.958;13.158;2022-09-29T09:20:24;93275.01;;;10.54;58.50
49915;BME280;35806;47.958;13.158;2022-09-29T09:22:56;93274.22;;;10.88;57.16
49915;BME280;35806;47.958;13.158;2022-09-29T09:25:28;93274.05;;;10.67;58.10
49915;BME280;35806;47.958;13.158;2022-09-29T09:28:03;93274.37;;;11.21;58.42
49915;BME280;35806;47.958;13.158;2022-09-29T09:30:38;93274.23;;;10.91;57.81
49915;BME280;35806;47.958;13.158;2022-09-29T09:33:17;93272.98;;;11.01;57.32
49915;BME280;35806;47.958;13.158;2022-09-29T09:35:51;93274.94;;;10.84;58.06
49915;BME280;35806;47.958;13.158;2022-09-29T09:38:23;93276.79;;;11.31;58.80
49915;BME280;35806;47.958;13.158;2022-09-29T09:40:54;93275.81;;;11.89;57.22
49915;BME280;35806;47.958;13.158;2022-09-29T09:43:26;93275.23;;;11.26;58.04
49915;BME280;35806;47.958;13.158;2022-09-29T09:45:59;93278.62;;;11.56;59.07
49915;BME280;35806;47.958;13.158;2022-09-29T09:48:32;93277.73;;;12.14;57.56
49915;BME280;35806;47.958;13.158;2022-09-29T09:51:17;93274.54;;;12.47;54.62
49915;BME280;35806;47.958;13.158;2022-09-29T09:53:48;93273.22;;;12.57;58.72
49915;BME280;35806;47.958;13.158;2022-09-29T09:56:27;93268.93;;;12.95;56.96
49915;BME280;35806;47.958;13.158;2022-09-29T09:59:11;93265.82;;;13.65;56.39
49915;BME280;35806;47.958;13.158;2022-09-29T10:01:42;93263.70;;;13.48;57.24
49915;BME280;35806;47.958;13.158;2022-09-29T10:04:11;93264.35;;;14.09;55.17
49915;BME280;35806;47.958;13.158;2022-09-29T10:06:45;93264.16;;;14.62;52.65
49915;BME280;35806;47.958;13.158;2022-09-29T10:09:14;93264.82;;;12.99;51.57
49915;BME280;35806;47.958;13.158;2022-09-29T10:11:42;93266.80;;;12.99;51.47
49915;BME280;35806;47.958;13.158;2022-09-29T10:14:13;93270.63;;;12.10;53.45
49915;BME280;35806;47.958;13.158;2022-09-29T10:16:45;93271.19;;;12.21;53.55
49915;BME280;35806;47.958;13.158;2022-09-29T10:19:14;93271.46;;;12.92;53.14
49915;BME280;35806;47.958;13.158;2022-09-29T10:21:47;93273.25;;;13.04;53.61
49915;BME280;35806;47.958;13.158;2022-09-29T10:24:29;93273.18;;;13.01;52.84
49915;BME280;35806;47.958;13.158;2022-09-29T10:26:58;93273.93;;;13.05;51.62
49915;BME280;35806;47.958;13.158;2022-09-29T10:29:32;93277.00;;;12.19;53.31
49915;BME280;35806;47.958;13.158;2022-09-29T10:32:04;93281.03;;;12.23;51.90
49915;BME280;35806;47.958;13.158;2022-09-29T10:34:33;93284.13;;;12.30;53.93
49915;BME280;35806;47.958;13.158;2022-09-29T10:37:04;93288.17;;;12.40;53.60
49915;BME280;35806;47.958;13.158;2022-09-29T10:39:37;93287.92;;;11.99;53.79
49915;BME280;35806;47.958;13.158;2022-09-29T10:42:15;93286.99;;;12.85;49.74
49915;BME280;35806;47.958;13.158;2022-09-29T10:44:50;93280.56;;;13.39;52.39
49915;BME280;35806;47.958;13.158;2022-09-29T10:47:19;93270.64;;;13.34;54.13
49915;BME280;35806;47.958;13.158;2022-09-29T10:49:47;93267.65;;;13.20;53.20
49915;BME280;35806;47.958;13.158;2022-09-29T10:52:21;93269.67;;;14.21;51.09
49915;BME280;35806;47.958;13.158;2022-09-29T10:54:54;93271.55;;;13.33;50.60
49915;BME280;35806;47.958;13.158;2022-09-29T10:57:25;93273.04;;;13.67;50.02
49915;BME280;35806;47.958;13.158;2022-09-29T10:59:55;93270.65;;;13.20;49.64
49915;BME280;35806;47.958;13.158;2022-09-29T11:02:28;93262.52;;;13.73;49.35
49915;BME280;35806;47.958;13.158;2022-09-29T11:04:59;93255.87;;;13.87;51.10
49915;BME280;35806;47.958;13.158;2022-09-29T11:07:27;93257.09;;;14.09;51.92
49915;BME280;35806;47.958;13.158;2022-09-29T11:09:55;93256.62;;;13.82;52.47
49915;BME280;35806;47.958;13.158;2022-09-29T11:12:27;93249.97;;;13.77;51.48
49915;BME280;35806;47.958;13.158;2022-09-29T11:14:55;93247.59;;;14.97;47.98
49915;BME280;35806;47.958;13.158;2022-09-29T11:17:25;93245.55;;;14.88;50.72
49915;BME280;35806;47.958;13.158;2022-09-29T11:19:54;93246.33;;;15.27;48.26
49915;BME280;35806;47.958;13.158;2022-09-29T11:22:58;93257.66;;;14.33;49.75
49915;BME280;35806;47.958;13.158;2022-09-29T11:25:56;93265.64;;;13.50;48.15
49915;BME280;35806;47.958;13.158;2022-09-29T11:28:47;93271.17;;;13.54;49.06
49915;BME280;35806;47.958;13.158;2022-09-29T11:31:30;93272.23;;;12.98;49.77
49915;BME280;35806;47.958;13.158;2022-09-29T11:34:13;93276.03;;;13.06;50.47
49915;BME280;35806;47.958;13.158;2022-09-29T11:36:54;93281.93;;;12.50;50.57
49915;BME280;35806;47.958;13.158;2022-09-29T11:39:33;93286.21;;;13.24;50.60
49915;BME280;35806;47.958;13.158;2022-09-29T11:42:16;93276.08;;;12.98;50.25
49915;BME280;35806;47.958;13.158;2022-09-29T11:44:56;93264.48;;;13.63;48.50
49915;BME280;35806;47.958;13.158;2022-09-29T11:48:05;93256.30;;;12.88;50.49
49915;BME280;35806;47.958;13.158;2022-09-29T11:50:47;93252.80;;;13.39;50.12
49915;BME280;35806;47.958;13.158;2022-09-29T11:53:56;93250.25;;;13.67;51.02
49915;BME280;35806;47.958;13.158;2022-09-29T11:56:32;93254.44;;;13.71;51.37
49915;BME280;35806;47.958;13.158;2022-09-29T11:59:17;93251.08;;;13.06;49.82
49915;BME280;35806;47.958;13.158;2022-09-29T12:01:59;93249.17;;;13.14;50.32
49915;BME280;35806;47.958;13.158;2022-09-29T12:04:39;93248.89;;;12.67;51.05
49915;BME280;35806;47.958;13.158;2022-09-29T12:07:22;93247.29;;;13.18;51.72
49915;BME280;35806;47.958;13.158;2022-09-29T12:10:11;93253.10;;;13.75;50.19
49915;BME280;35806;47.958;13.158;2022-09-29T12:12:44;93261.38;;;13.72;50.47
49915;BME280;35806;47.958;13.158;2022-09-29T12:15:23;93267.84;;;12.95;50.96
49915;BME280;35806;47.958;13.158;2022-09-29T12:18:03;93264.83;;;13.03;49.68
49915;BME280;35806;47.958;13.158;2022-09-29T12:20:37;93266.18;;;12.65;49.83
49915;BME280;35806;47.958;13.158;2022-09-29T12:23:10;93274.15;;;12.67;50.31
49915;BME280;35806;47.958;13.158;2022-09-29T12:25:52;93266.55;;;13.08;49.09
49915;BME280;35806;47.958;13.158;2022-09-29T12:28:25;93268.39;;;12.52;50.75
49915;BME280;35806;47.958;13.158;2022-09-29T12:30:57;93266.84;;;12.88;50.79
49915;BME280;35806;47.958;13.158;2022-09-29T12:33:32;93279.07;;;12.50;51.16
49915;BME280;35806;47.958;13.158;2022-09-29T12:36:12;93283.24;;;12.69;51.73
49915;BME280;35806;47.958;13.158;2022-09-29T12:38:44;93276.42;;;12.24;52.55
49915;BME280;35806;47.958;13.158;2022-09-29T12:41:15;93271.61;;;13.31;51.89
49915;BME280;35806;47.958;13.158;2022-09-29T12:43:50;93267.24;;;13.40;48.13
49915;BME280;35806;47.958;13.158;2022-09-29T12:46:26;93260.02;;;13.37;50.43
49915;BME280;35806;47.958;13.158;2022-09-29T12:49:03;93257.79;;;13.61;50.29
49915;BME280;35806;47.958;13.158;2022-09-29T12:51:37;93259.39;;;13.37;49.96
49915;BME280;35806;47.958;13.158;2022-09-29T12:54:11;93260.93;;;13.39;50.58
49915;BME280;35806;47.958;13.158;2022-09-29T12:56:45;93255.57;;;12.34;48.95
49915;BME280;35806;47.958;13.158;2022-09-29T12:59:23;93259.22;;;13.06;48.63
49915;BME280;35806;47.958;13.158;2022-09-29T13:01:54;93254.06;;;12.42;49.28
49915;BME280;35806;47.958;13.158;2022-09-29T13:04:42;93254.04;;;12.74;48.41
49915;BME280;35806;47.958;13.158;2022-09-29T13:07:29;93256.06;;;12.77;48.63
49915;BME280;35806;47.958;13.158;2022-09-29T13:10:14;93261.33;;;12.93;48.29
49915;BME280;35806;47.958;13.158;2022-09-29T13:12:58;93270.74;;;13.20;48.21
49915;BME280;35806;47.958;13.158;2022-09-29T13:15:38;93269.18;;;13.12;49.03
49915;BME280;35806;47.958;13.158;2022-09-29T13:18:21;93269.36;;;13.26;46.99
49915;BME280;35806;47.958;13.158;2022-09-29T13:20:59;93283.20;;;12.73;48.95
49915;BME280;35806;47.958;13.158;2022-09-29T13:23:45;93286.76;;;12.90;48.29
49915;BME280;35806;47.958;13.158;2022-09-29T13:26:33;93287.06;;;12.70;48.91
49915;BME280;35806;47.958;13.158;2022-09-29T13:29:11;93281.95;;;12.69;49.60
49915;BME280;35806;47.958;13.158;2022-09-29T13:32:01;93278.21;;;13.14;49.32
49915;BME280;35806;47.958;13.158;2022-09-29T13:34:31;93280.97;;;13.13;49.76
49915;BME280;35806;47.958;13.158;2022-09-29T13:37:11;93285.38;;;12.84;50.16